Fisherville, Kentucky
Current Conditions -  °F | °C
As of 3:16 AM on Saturday 20 Dec 2014 (Local Time) from KLOU Reporting Station
Light Snow Light Snow  
Wind Chill: 29°   Ceiling: 3100
Heat Index: 29°   Visibility: 3mi
Dew Point: 24°   Wind: 3mph
Humidity: 82%   Direction: 20°NNE
Pressure: 30.27"   Gusts: NA
Location:  38.19°N, 85.46°W
Report Text: KLOU 200816Z AUTO 02003KT 3SM -SN BKN031 OVC060 M02/M04 A3027 RMK AO2 SNB0755 P0000 T10171044
Loading
Personal Weather Stations






























Interactive Weather Map New forecast layout! Learn more

10-Day Weather Forecast

Advertisements
Track Severe Weather on mobile